Aegean Orion — SVA2487 — position and weather

sailwx.info

Track history (hours):
 
Tides and Currents Weather Stations Pressure Air Temp Water Temp Dewpoint Dewpoint Depression Visibility Wind Speed Wind Dir Waves Ship Positions

Aegean Orion

Last reported at 2014-Nov-23 11:33 UTC. Time now 2014-Nov-23 12:19 UTC.
Position N 38°02' E 023°36'.

; draft 2.4 m.

Type: Ship. MMSI: 239550200.

Date/timePositionNaut miles runAvg speedWind from/ knotsBaromVisibWave heightAir tempDewpointWater temp
2014-Nov-23 11:33N 38°02' E 023°36'0 0.0
2014-Nov-23 10:33N 38°02' E 023°36'0 0.0
2014-Nov-23 09:33N 38°02' E 023°36'0 0.0
2014-Nov-23 08:33N 38°02' E 023°36'1 0.7
2014-Nov-23 07:33N 38°02' E 023°35'0 0.0
2014-Nov-23 06:33N 38°02' E 023°35'2 0.1
2014-Nov-21 14:29N 38°02' E 023°32'0 0.0
2014-Nov-21 13:33N 38°02' E 023°32'0 0.0
2014-Nov-21 12:33N 38°02' E 023°32'0 0.0
2014-Nov-21 11:33N 38°02' E 023°32'0 0.0
2014-Nov-21 10:34N 38°02' E 023°32'6 6.0
2014-Nov-21 09:33N 37°57' E 023°35'2 1.8
2014-Nov-21 08:33N 37°56' E 023°38'0 0.0
2014-Nov-21 07:34N 37°56' E 023°38'0 0.0
2014-Nov-21 06:33N 37°56' E 023°38'5 4.9
2014-Nov-21 05:33N 37°60' E 023°33'3 0.2
2014-Nov-20 16:22N 38°02' E 023°32'4 5.4
2014-Nov-20 15:33N 37°58' E 023°33'5 4.5
2014-Nov-20 14:33N 37°57' E 023°38'0 0.0
2014-Nov-20 13:33N 37°57' E 023°38'2 2.3
2014-Nov-20 12:33N 37°57' E 023°36'6 6.1
2014-Nov-20 11:33N 38°02' E 023°32'0 0.1
2014-Nov-20 10:33N 38°02' E 023°32'0 0.0
2014-Nov-20 09:33N 38°02' E 023°32'0 0.0
2014-Nov-20 08:33N 38°02' E 023°32'0 0.0
2014-Nov-20 07:33N 38°02' E 023°32'0 0.0
2014-Nov-19 14:34N 38°02' E 023°32'0 0.0
2014-Nov-19 13:34N 38°02' E 023°32'0 0.0
2014-Nov-19 12:34N 38°02' E 023°32'0 0.0
2014-Nov-19 11:33N 38°02' E 023°32'1 1.0
2014-Nov-19 10:34N 38°02' E 023°31'0 0.1
2014-Nov-19 09:34N 38°02' E 023°31'0 0.0
2014-Nov-19 08:33N 38°02' E 023°31'0 0.0
2014-Nov-19 07:27N 38°02' E 023°31'0 0.0
2014-Nov-19 06:33N 38°02' E 023°31'0 0.5
2014-Nov-19 05:33N 38°02' E 023°31'1 0.5
2014-Nov-19 04:31N 38°02' E 023°32'0 0.0
2014-Nov-17 10:34N 38°02' E 023°32'0 0.0
2014-Nov-17 09:33N 38°02' E 023°32'0 0.0
2014-Nov-17 08:34N 38°02' E 023°32'0 0.0
2014-Nov-17 07:34N 38°02' E 023°32'0 0.0
2014-Nov-17 06:34N 38°02' E 023°32'1 1.3
2014-Nov-17 05:34N 38°01' E 023°32'4 3.9
2014-Nov-17 04:33N 37°57' E 023°34'0 0.0
2014-Nov-17 03:34N 37°57' E 023°34'0 0.0
2014-Nov-17 02:34N 37°57' E 023°34'0 0.1
2014-Nov-17 01:34N 37°57' E 023°34'3 3.4
2014-Nov-17 00:34N 37°57' E 023°38'0 0.0
2014-Nov-16 23:34N 37°57' E 023°38'0 0.0
2014-Nov-16 22:34N 37°57' E 023°38'1 0.9
2014-Nov-16 21:34N 37°56' E 023°37'3 2.8
2014-Nov-16 20:34N 37°57' E 023°34'0 0.0
2014-Nov-16 19:34N 37°57' E 023°34'0 0.0
2014-Nov-16 18:34N 37°57' E 023°34'0 0.0
2014-Nov-16 17:34N 37°57' E 023°34'0 0.0
2014-Nov-16 16:34N 37°57' E 023°34'0 0.0
2014-Nov-16 15:34N 37°57' E 023°34'3 3.0
2014-Nov-16 14:32N 38°00' E 023°33'3 2.6
2014-Nov-16 13:34N 38°02' E 023°31'0 0.0
2014-Nov-16 12:34N 38°02' E 023°31'0 0.0
2014-Nov-16 11:34N 38°02' E 023°31'0 0.0
2014-Nov-16 10:34N 38°02' E 023°31'0 0.0
2014-Nov-16 09:34N 38°02' E 023°31'0 0.0
2014-Nov-16 08:34N 38°02' E 023°31'0 0.0
2014-Nov-16 07:33N 38°02' E 023°31'0 0.0
2014-Nov-16 06:33N 38°02' E 023°31'0 0.1
2014-Nov-16 05:34N 38°02' E 023°31'1 1.0
2014-Nov-16 04:33N 38°02' E 023°32'0 0.0
2014-Nov-16 03:34N 38°02' E 023°32'6 0.2
2014-Nov-14 10:33N 37°57' E 023°36'2 0.8
2014-Nov-14 08:24N 37°57' E 023°38'0 0.0
2014-Nov-14 07:29N 37°57' E 023°38'4 3.9
2014-Nov-14 06:32N 37°57' E 023°34'5 0.3
2014-Nov-13 12:34N 38°02' E 023°32'2 1.6
2014-Nov-13 11:33N 38°01' E 023°32'  
Track history (hours):
 
Tides and Currents Weather Stations Pressure Air Temp Water Temp Dewpoint Dewpoint Depression Visibility Wind Speed Wind Dir Waves Ship Positions

Aegean Orion

Last reported at 2014-Nov-23 11:33 UTC. Time now 2014-Nov-23 12:19 UTC.
Position N 38°02' E 023°36'.

; draft 2.4 m.

Type: Ship. MMSI: 239550200.

Date/timePositionNaut miles runAvg speedWind from/ knotsBaromVisibWave heightAir tempDewpointWater temp
2014-Nov-23 11:33N 38°02' E 023°36'0 0.0
2014-Nov-23 10:33N 38°02' E 023°36'0 0.0
2014-Nov-23 09:33N 38°02' E 023°36'0 0.0
2014-Nov-23 08:33N 38°02' E 023°36'1 0.7
2014-Nov-23 07:33N 38°02' E 023°35'0 0.0
2014-Nov-23 06:33N 38°02' E 023°35'2 0.1
2014-Nov-21 14:29N 38°02' E 023°32'0 0.0
2014-Nov-21 13:33N 38°02' E 023°32'0 0.0
2014-Nov-21 12:33N 38°02' E 023°32'0 0.0
2014-Nov-21 11:33N 38°02' E 023°32'0 0.0
2014-Nov-21 10:34N 38°02' E 023°32'6 6.0
2014-Nov-21 09:33N 37°57' E 023°35'2 1.8
2014-Nov-21 08:33N 37°56' E 023°38'0 0.0
2014-Nov-21 07:34N 37°56' E 023°38'0 0.0
2014-Nov-21 06:33N 37°56' E 023°38'5 4.9
2014-Nov-21 05:33N 37°60' E 023°33'3 0.2
2014-Nov-20 16:22N 38°02' E 023°32'4 5.4
2014-Nov-20 15:33N 37°58' E 023°33'5 4.5
2014-Nov-20 14:33N 37°57' E 023°38'0 0.0
2014-Nov-20 13:33N 37°57' E 023°38'2 2.3
2014-Nov-20 12:33N 37°57' E 023°36'6 6.1
2014-Nov-20 11:33N 38°02' E 023°32'0 0.1
2014-Nov-20 10:33N 38°02' E 023°32'0 0.0
2014-Nov-20 09:33N 38°02' E 023°32'0 0.0
2014-Nov-20 08:33N 38°02' E 023°32'0 0.0
2014-Nov-20 07:33N 38°02' E 023°32'0 0.0
2014-Nov-19 14:34N 38°02' E 023°32'0 0.0
2014-Nov-19 13:34N 38°02' E 023°32'0 0.0
2014-Nov-19 12:34N 38°02' E 023°32'0 0.0
2014-Nov-19 11:33N 38°02' E 023°32'1 1.0
2014-Nov-19 10:34N 38°02' E 023°31'0 0.1
2014-Nov-19 09:34N 38°02' E 023°31'0 0.0
2014-Nov-19 08:33N 38°02' E 023°31'0 0.0
2014-Nov-19 07:27N 38°02' E 023°31'0 0.0
2014-Nov-19 06:33N 38°02' E 023°31'0 0.5
2014-Nov-19 05:33N 38°02' E 023°31'1 0.5
2014-Nov-19 04:31N 38°02' E 023°32'0 0.0
2014-Nov-17 10:34N 38°02' E 023°32'0 0.0
2014-Nov-17 09:33N 38°02' E 023°32'0 0.0
2014-Nov-17 08:34N 38°02' E 023°32'0 0.0
2014-Nov-17 07:34N 38°02' E 023°32'0 0.0
2014-Nov-17 06:34N 38°02' E 023°32'1 1.3
2014-Nov-17 05:34N 38°01' E 023°32'4 3.9
2014-Nov-17 04:33N 37°57' E 023°34'0 0.0
2014-Nov-17 03:34N 37°57' E 023°34'0 0.0
2014-Nov-17 02:34N 37°57' E 023°34'0 0.1
2014-Nov-17 01:34N 37°57' E 023°34'3 3.4
2014-Nov-17 00:34N 37°57' E 023°38'0 0.0
2014-Nov-16 23:34N 37°57' E 023°38'0 0.0
2014-Nov-16 22:34N 37°57' E 023°38'1 0.9
2014-Nov-16 21:34N 37°56' E 023°37'3 2.8
2014-Nov-16 20:34N 37°57' E 023°34'0 0.0
2014-Nov-16 19:34N 37°57' E 023°34'0 0.0
2014-Nov-16 18:34N 37°57' E 023°34'0 0.0
2014-Nov-16 17:34N 37°57' E 023°34'0 0.0
2014-Nov-16 16:34N 37°57' E 023°34'0 0.0
2014-Nov-16 15:34N 37°57' E 023°34'3 3.0
2014-Nov-16 14:32N 38°00' E 023°33'3 2.6
2014-Nov-16 13:34N 38°02' E 023°31'0 0.0
2014-Nov-16 12:34N 38°02' E 023°31'0 0.0
2014-Nov-16 11:34N 38°02' E 023°31'0 0.0
2014-Nov-16 10:34N 38°02' E 023°31'0 0.0
2014-Nov-16 09:34N 38°02' E 023°31'0 0.0
2014-Nov-16 08:34N 38°02' E 023°31'0 0.0
2014-Nov-16 07:33N 38°02' E 023°31'0 0.0
2014-Nov-16 06:33N 38°02' E 023°31'0 0.1
2014-Nov-16 05:34N 38°02' E 023°31'1 1.0
2014-Nov-16 04:33N 38°02' E 023°32'0 0.0
2014-Nov-16 03:34N 38°02' E 023°32'6 0.2
2014-Nov-14 10:33N 37°57' E 023°36'2 0.8
2014-Nov-14 08:24N 37°57' E 023°38'0 0.0
2014-Nov-14 07:29N 37°57' E 023°38'4 3.9
2014-Nov-14 06:32N 37°57' E 023°34'5 0.3
2014-Nov-13 12:34N 38°02' E 023°32'2 1.6
2014-Nov-13 11:33N 38°01' E 023°32'  

Dump ship's entire track history